Lanark, West Virginia
Current Conditions -  °F | °C
As of 4:51 AM on Monday 26 Jan 2015 (Local Time) from KBKW Reporting Station
Overcast Overcast  
Wind Chill: 38°   Ceiling: 5500
Heat Index: 38°   Visibility: 10mi
Dew Point: 31°   Wind: 3mph
Humidity: 76%   Direction: 120°ESE
Pressure: 29.59"   Gusts: NA
Location:  37.83°N, 81.15°W
Report Text: KBKW 260951Z AUTO 12003KT 10SM FEW036 FEW045 OVC055 03/M01 A2959 RMK AO2 SLP031 T00331006
Loading
Personal Weather Stations






























Interactive Weather Map New forecast layout! Learn more

10-Day Weather Forecast

Advertisements
Track Severe Weather on mobile